createdAt,value
2022-09-13T00:01:17.035Z,70.23
2022-09-13T00:03:45.093Z,71.48
2022-09-13T00:06:14.824Z,72.38
2022-09-13T00:08:43.336Z,72.40
2022-09-13T00:11:17.395Z,71.93
2022-09-13T00:13:45.738Z,72.15
2022-09-13T00:16:14.663Z,71.53
2022-09-13T00:18:46.715Z,70.55
2022-09-13T00:21:17.225Z,69.87
2022-09-13T00:23:46.094Z,69.93
2022-09-13T00:26:15.848Z,70.12
2022-09-13T00:28:45.344Z,70.01
2022-09-13T00:31:14.068Z,71.32
2022-09-13T00:33:41.866Z,71.06
2022-09-13T00:36:15.244Z,70.80
2022-09-13T00:38:43.965Z,71.01
2022-09-13T00:41:17.179Z,71.37
2022-09-13T00:43:48.140Z,72.42
2022-09-13T00:46:24.925Z,74.26
2022-09-13T00:48:56.417Z,77.11
2022-09-13T00:51:26.460Z,77.06
2022-09-13T00:53:59.528Z,74.97
2022-09-13T00:56:33.018Z,73.47
2022-09-13T00:59:03.493Z,72.36
2022-09-13T01:01:38.007Z,72.01
2022-09-13T01:04:08.667Z,71.46
2022-09-13T01:06:42.769Z,70.97
2022-09-13T01:09:13.099Z,70.99
2022-09-13T01:11:47.158Z,71.19
2022-09-13T01:14:15.511Z,71.08
2022-09-13T01:16:47.644Z,71.56
2022-09-13T01:19:15.962Z,71.25
2022-09-13T01:22:13.515Z,73.14
2022-09-13T01:25:09.821Z,72.63
2022-09-13T01:27:46.708Z,72.07
2022-09-13T01:30:19.101Z,72.43
2022-09-13T01:33:13.283Z,71.94
2022-09-13T01:35:56.024Z,71.76
2022-09-13T01:38:41.448Z,71.63
2022-09-13T01:41:25.885Z,71.64
2022-09-13T01:44:00.253Z,71.25
2022-09-13T01:46:33.152Z,72.02
2022-09-13T01:49:08.470Z,71.61
2022-09-13T01:51:44.334Z,71.49
2022-09-13T01:54:18.135Z,71.31
2022-09-13T01:56:55.536Z,71.48
2022-09-13T01:59:27.769Z,71.07
2022-09-13T02:02:03.712Z,71.05
2022-09-13T02:04:38.308Z,70.80
2022-09-13T02:07:12.416Z,70.25
2022-09-13T02:09:44.560Z,71.58
2022-09-13T02:12:16.844Z,71.46
2022-09-13T02:14:47.451Z,71.44
2022-09-13T02:17:21.612Z,72.20
2022-09-13T02:19:53.918Z,71.66
2022-09-13T02:22:27.223Z,71.91
2022-09-13T02:24:58.414Z,71.56
2022-09-13T02:27:33.125Z,71.28
2022-09-13T02:30:05.470Z,70.64
2022-09-13T02:32:38.202Z,70.71
2022-09-13T02:35:13.442Z,70.70
2022-09-13T02:37:43.514Z,70.70
2022-09-13T02:40:22.748Z,71.11
2022-09-13T02:42:55.856Z,71.50
2022-09-13T02:45:30.781Z,71.52
2022-09-13T02:48:05.534Z,71.51
2022-09-13T02:50:48.431Z,71.28
2022-09-13T02:53:24.031Z,71.16
2022-09-13T02:55:56.272Z,71.28
2022-09-13T02:58:31.978Z,71.31
2022-09-13T03:00:59.811Z,71.88
2022-09-13T03:03:29.143Z,71.43
2022-09-13T03:05:56.975Z,71.38
2022-09-13T03:08:25.546Z,71.02
2022-09-13T03:11:03.788Z,71.70
2022-09-13T03:13:41.642Z,73.32
2022-09-13T03:16:25.810Z,74.16
2022-09-13T03:19:07.979Z,73.99
2022-09-13T03:21:51.534Z,74.01
2022-09-13T03:24:25.240Z,73.44
2022-09-13T03:27:07.873Z,72.83
2022-09-13T03:29:44.516Z,74.24
2022-09-13T03:32:30.319Z,73.91
2022-09-13T03:35:08.203Z,74.16
2022-09-13T03:37:46.474Z,74.13
2022-09-13T03:40:17.557Z,74.29
2022-09-13T03:42:53.210Z,74.12
2022-09-13T03:45:24.929Z,75.79
2022-09-13T03:47:56.014Z,75.51
2022-09-13T03:50:27.466Z,76.16
2022-09-13T03:53:01.327Z,75.57
2022-09-13T03:55:30.107Z,74.25
2022-09-13T03:57:58.008Z,73.89
2022-09-13T04:00:26.167Z,74.63
2022-09-13T04:02:55.466Z,74.12
2022-09-13T04:05:23.224Z,74.41
2022-09-13T04:07:54.466Z,74.07
2022-09-13T04:10:24.202Z,74.48
2022-09-13T04:12:52.512Z,78.44
2022-09-13T04:15:20.349Z,76.47
2022-09-13T04:17:48.215Z,75.48
2022-09-13T04:20:15.981Z,76.91
2022-09-13T04:22:43.716Z,75.74
2022-09-13T04:25:12.845Z,75.23
2022-09-13T04:27:42.884Z,74.88
2022-09-13T04:30:12.657Z,74.66
2022-09-13T04:32:40.362Z,75.07
2022-09-13T04:35:09.274Z,78.72
2022-09-13T04:37:37.415Z,81.28
2022-09-13T04:40:06.386Z,79.55
2022-09-13T04:42:35.590Z,78.32
2022-09-13T04:45:03.820Z,77.59
2022-09-13T04:47:31.921Z,77.34
2022-09-13T04:50:02.064Z,77.78
2022-09-13T04:52:29.836Z,80.17
2022-09-13T04:55:00.559Z,80.38
2022-09-13T04:57:28.506Z,78.86
2022-09-13T04:59:57.697Z,76.93
2022-09-13T05:02:25.508Z,76.23
2022-09-13T05:04:53.319Z,76.05
2022-09-13T05:07:21.108Z,75.62
2022-09-13T05:09:50.996Z,75.99
2022-09-13T05:12:18.747Z,75.33
2022-09-13T05:14:46.635Z,74.67
2022-09-13T05:17:17.808Z,74.36
2022-09-13T05:19:45.602Z,74.31
2022-09-13T05:22:13.396Z,74.60
2022-09-13T05:24:41.511Z,74.11
2022-09-13T05:27:09.635Z,73.47
2022-09-13T05:29:39.764Z,73.73
2022-09-13T05:32:07.573Z,73.49
2022-09-13T05:34:36.962Z,74.15
2022-09-13T05:37:04.811Z,74.11
2022-09-13T05:39:48.441Z,74.05
2022-09-13T05:42:20.344Z,73.67
2022-09-13T05:44:48.139Z,73.78
2022-09-13T05:47:16.806Z,73.64
2022-09-13T05:50:08.753Z,74.35
2022-09-13T05:52:33.675Z,73.96
2022-09-13T05:55:01.382Z,73.85
2022-09-13T05:57:29.290Z,73.83
2022-09-13T05:59:57.023Z,73.44
2022-09-13T06:02:24.994Z,73.78
2022-09-13T06:04:54.198Z,74.08
2022-09-13T06:07:21.956Z,73.13
2022-09-13T06:09:49.839Z,73.08
2022-09-13T06:12:17.553Z,73.73
2022-09-13T06:14:45.297Z,73.74
2022-09-13T06:17:13.060Z,72.77
2022-09-13T06:19:40.832Z,72.56
2022-09-13T06:22:09.953Z,71.95
2022-09-13T06:24:38.314Z,71.61
2022-09-13T06:27:06.316Z,71.30
2022-09-13T06:29:34.068Z,71.22
2022-09-13T06:32:01.802Z,71.13
2022-09-13T06:34:31.444Z,71.71
2022-09-13T06:36:59.385Z,71.27
2022-09-13T06:39:29.086Z,71.60
2022-09-13T06:41:56.850Z,72.16
2022-09-13T06:44:39.954Z,71.27
2022-09-13T06:47:07.958Z,71.56
2022-09-13T06:49:37.840Z,72.04
2022-09-13T06:52:05.668Z,72.41
2022-09-13T06:54:34.857Z,70.53
2022-09-13T06:57:03.305Z,71.59
2022-09-13T06:59:31.060Z,71.30
2022-09-13T07:02:01.446Z,72.29
2022-09-13T07:04:31.535Z,72.06
2022-09-13T07:07:00.863Z,72.27
2022-09-13T07:09:28.838Z,71.43
2022-09-13T07:11:58.028Z,71.35
2022-09-13T07:14:27.780Z,71.76
2022-09-13T07:16:56.036Z,70.03
2022-09-13T07:19:26.441Z,69.59
2022-09-13T07:21:55.243Z,68.70
2022-09-13T07:24:23.958Z,69.12
2022-09-13T07:26:51.810Z,69.35
2022-09-13T07:29:24.214Z,69.19
2022-09-13T07:31:54.182Z,68.73
2022-09-13T07:34:23.306Z,67.67
2022-09-13T07:36:52.454Z,66.86
2022-09-13T07:39:23.076Z,66.43
2022-09-13T07:41:51.439Z,65.95
2022-09-13T07:44:19.203Z,63.85
2022-09-13T07:46:48.340Z,63.72
2022-09-13T07:49:19.052Z,61.54
2022-09-13T07:51:51.024Z,61.22
2022-09-13T07:54:20.123Z,62.86
2022-09-13T07:56:50.191Z,61.75
2022-09-13T07:59:19.465Z,62.76
2022-09-13T08:01:50.210Z,62.34
2022-09-13T08:04:19.770Z,61.87
2022-09-13T08:06:48.183Z,60.92
2022-09-13T08:09:16.997Z,60.27
2022-09-13T08:11:46.585Z,60.38
2022-09-13T08:14:16.166Z,60.97
2022-09-13T08:16:44.240Z,61.21
2022-09-13T08:19:15.194Z,60.06
2022-09-13T08:21:43.835Z,59.88
2022-09-13T08:24:15.834Z,59.42
2022-09-13T08:26:43.762Z,58.91
2022-09-13T08:29:13.382Z,58.64
2022-09-13T08:31:41.586Z,58.00
2022-09-13T08:34:14.487Z,58.38
2022-09-13T08:36:42.659Z,58.02
2022-09-13T08:39:12.686Z,57.32
2022-09-13T08:42:17.101Z,56.96
2022-09-13T08:44:48.799Z,55.49
2022-09-13T08:47:31.744Z,55.69
2022-09-13T08:50:08.224Z,55.98
2022-09-13T08:52:45.500Z,55.21
2022-09-13T08:55:25.017Z,54.04
2022-09-13T08:58:03.438Z,54.05
2022-09-13T09:00:36.291Z,54.54
2022-09-13T09:03:17.891Z,53.48
2022-09-13T09:05:49.122Z,52.66
2022-09-13T09:08:31.139Z,53.45
2022-09-13T09:11:02.966Z,51.67
2022-09-13T09:13:33.830Z,51.38
2022-09-13T09:16:07.047Z,51.88
2022-09-13T09:18:40.938Z,51.54
2022-09-13T09:21:16.375Z,51.17
2022-09-13T09:23:52.435Z,50.69
2022-09-13T09:26:22.821Z,49.82
2022-09-13T09:28:52.167Z,49.79
2022-09-13T09:31:32.270Z,49.08
2022-09-13T09:34:15.476Z,49.59
2022-09-13T09:36:50.050Z,49.25
2022-09-13T09:39:17.879Z,49.85
2022-09-13T09:41:46.305Z,50.26
2022-09-13T09:44:22.541Z,48.08
2022-09-13T09:46:55.856Z,49.55
2022-09-13T09:49:50.646Z,48.11
2022-09-13T09:52:28.108Z,48.78
2022-09-13T09:55:01.208Z,47.65
2022-09-13T09:57:50.966Z,50.28
2022-09-13T10:00:20.132Z,49.15
2022-09-13T10:02:50.161Z,49.81
2022-09-13T10:05:20.792Z,48.42
2022-09-13T10:07:57.601Z,48.60
2022-09-13T10:10:36.694Z,46.95
2022-09-13T10:13:05.866Z,45.94
2022-09-13T10:15:35.462Z,47.60
2022-09-13T10:18:39.961Z,45.75
2022-09-13T10:21:11.165Z,45.05
2022-09-13T10:23:42.049Z,44.04
2022-09-13T10:26:13.290Z,46.02
2022-09-13T10:28:48.132Z,46.06
2022-09-13T10:31:18.509Z,45.49
2022-09-13T10:33:57.337Z,45.73
2022-09-13T10:36:51.160Z,44.22
2022-09-13T10:39:22.546Z,44.77
2022-09-13T10:41:53.917Z,44.11
2022-09-13T10:44:31.255Z,40.80
2022-09-13T10:47:02.948Z,41.59
2022-09-13T10:49:39.047Z,40.13
2022-09-13T10:52:25.662Z,40.42
2022-09-13T10:54:55.217Z,41.15
2022-09-13T10:57:34.497Z,40.09
2022-09-13T11:00:03.004Z,40.12
2022-09-13T11:02:50.497Z,39.65
2022-09-13T11:05:23.450Z,37.23
2022-09-13T11:08:27.042Z,36.94
2022-09-13T11:11:08.778Z,36.49
2022-09-13T11:13:48.181Z,36.56
2022-09-13T11:16:33.881Z,37.24
2022-09-13T11:19:22.280Z,36.70
2022-09-13T11:22:05.399Z,36.67
2022-09-13T11:24:51.997Z,37.59
2022-09-13T11:27:30.334Z,36.38
2022-09-13T11:30:14.010Z,36.94
2022-09-13T11:33:06.300Z,37.07
2022-09-13T11:35:57.599Z,34.67
2022-09-13T11:38:42.572Z,36.93
2022-09-13T11:41:21.425Z,36.99
2022-09-13T11:44:03.984Z,37.12
2022-09-13T11:46:41.089Z,36.89
2022-09-13T11:49:28.812Z,38.67
2022-09-13T11:52:09.713Z,36.27
2022-09-13T11:55:00.324Z,37.08
2022-09-13T11:57:32.526Z,37.52
2022-09-13T12:00:05.743Z,37.24
2022-09-13T12:02:41.473Z,38.18
2022-09-13T12:05:22.534Z,36.82
2022-09-13T12:07:54.955Z,36.60
2022-09-13T12:10:26.877Z,34.48
2022-09-13T12:12:57.251Z,34.74
2022-09-13T12:15:36.183Z,35.48
2022-09-13T12:18:11.956Z,34.26
2022-09-13T12:20:47.999Z,34.06
2022-09-13T12:23:24.623Z,35.08
2022-09-13T12:25:56.670Z,36.16
2022-09-13T12:28:30.841Z,36.54
2022-09-13T12:31:05.963Z,35.80
2022-09-13T12:33:40.917Z,35.00
2022-09-13T12:36:37.447Z,34.22
2022-09-13T12:39:23.974Z,35.22
2022-09-13T12:42:07.322Z,34.80
2022-09-13T12:44:45.566Z,34.89
2022-09-13T12:47:49.777Z,36.36
2022-09-13T12:50:46.752Z,35.14
2022-09-13T12:53:33.269Z,34.58
2022-09-13T12:56:50.858Z,33.17
2022-09-13T12:59:44.751Z,34.12
2022-09-13T13:02:31.933Z,35.19
2022-09-13T13:05:02.296Z,34.64
2022-09-13T13:07:35.028Z,34.35
2022-09-13T13:10:03.423Z,34.95
2022-09-13T13:12:34.375Z,33.92
2022-09-13T13:15:04.447Z,34.21
2022-09-13T13:17:47.473Z,34.20
2022-09-13T13:20:41.803Z,34.94
2022-09-13T13:23:24.403Z,35.13
2022-09-13T13:26:08.659Z,35.92
2022-09-13T13:29:07.984Z,37.51
2022-09-13T13:31:38.639Z,37.05
2022-09-13T13:34:41.376Z,35.21
2022-09-13T13:37:29.201Z,35.04
2022-09-13T13:40:29.014Z,36.68
2022-09-13T13:43:30.666Z,34.92
2022-09-13T13:46:26.894Z,34.56
2022-09-13T13:48:55.135Z,34.55
2022-09-13T13:51:28.378Z,33.94
2022-09-13T13:54:03.631Z,33.68
2022-09-13T13:56:49.183Z,33.54
2022-09-13T13:59:27.946Z,33.39
2022-09-13T14:02:01.632Z,34.31
2022-09-13T14:04:48.674Z,33.22
2022-09-13T14:07:30.398Z,33.30
2022-09-13T14:10:04.380Z,34.83
2022-09-13T14:12:49.694Z,34.44
2022-09-13T14:15:36.421Z,32.90
2022-09-13T14:18:34.166Z,33.26
2022-09-13T14:21:03.249Z,32.12
2022-09-13T14:23:32.184Z,33.84
2022-09-13T14:26:01.842Z,34.57
2022-09-13T14:28:33.268Z,32.80
2022-09-13T14:31:01.198Z,33.02
2022-09-13T14:33:35.113Z,32.75
2022-09-13T14:36:06.321Z,33.37
2022-09-13T14:38:35.413Z,32.16
2022-09-13T14:41:13.562Z,32.21
2022-09-13T14:43:43.701Z,33.60
2022-09-13T14:46:15.303Z,33.20
2022-09-13T14:48:51.475Z,31.38
2022-09-13T14:51:25.340Z,33.21
2022-09-13T14:54:01.268Z,31.95
2022-09-13T14:56:41.351Z,33.51
2022-09-13T14:59:16.847Z,32.95
2022-09-13T15:01:46.779Z,33.04
2022-09-13T15:04:18.491Z,31.72
2022-09-13T15:06:46.640Z,32.09
2022-09-13T15:09:27.135Z,31.95
2022-09-13T15:12:01.065Z,32.46
2022-09-13T15:14:32.202Z,31.44
2022-09-13T15:17:02.877Z,31.48
2022-09-13T15:19:39.991Z,31.20
2022-09-13T15:22:16.690Z,31.41
2022-09-13T15:24:47.822Z,31.47
2022-09-13T15:27:26.046Z,33.04
2022-09-13T15:29:57.424Z,32.24
2022-09-13T15:32:32.301Z,32.04
2022-09-13T15:35:01.483Z,32.96
2022-09-13T15:37:37.394Z,33.81
2022-09-13T15:40:17.232Z,33.50
2022-09-13T15:42:50.018Z,34.68
2022-09-13T15:45:20.834Z,34.37
2022-09-13T15:47:49.948Z,35.57
2022-09-13T15:50:24.796Z,35.53
2022-09-13T15:52:52.694Z,36.03
2022-09-13T15:55:20.933Z,36.27
2022-09-13T15:57:49.276Z,37.33
2022-09-13T16:00:22.453Z,37.17
2022-09-13T16:02:50.347Z,37.36
2022-09-13T16:05:18.651Z,37.60
2022-09-13T16:07:47.066Z,37.98
2022-09-13T16:10:17.557Z,37.51
2022-09-13T16:12:45.694Z,38.77
2022-09-13T16:15:14.395Z,38.76
2022-09-13T16:17:43.583Z,38.78
2022-09-13T16:20:13.935Z,39.66
2022-09-13T16:22:41.761Z,40.66
2022-09-13T16:25:11.272Z,40.83
2022-09-13T16:27:41.927Z,41.86
2022-09-13T16:30:12.437Z,42.00
2022-09-13T16:32:41.225Z,41.93
2022-09-13T16:35:11.551Z,41.60
2022-09-13T16:37:39.941Z,41.58
2022-09-13T16:40:10.007Z,42.52
2022-09-13T16:42:40.192Z,42.85
2022-09-13T16:45:09.042Z,42.83
2022-09-13T16:47:37.672Z,43.52
2022-09-13T16:50:06.737Z,43.71
2022-09-13T16:52:36.545Z,43.81
2022-09-13T16:55:05.188Z,44.66
2022-09-13T16:57:33.183Z,44.72
2022-09-13T17:00:03.320Z,44.79
2022-09-13T17:02:31.372Z,45.13
2022-09-13T17:04:59.311Z,45.41
2022-09-13T17:07:27.393Z,45.53
2022-09-13T17:09:56.797Z,45.89
2022-09-13T17:12:24.695Z,45.70
2022-09-13T17:14:52.929Z,45.82
2022-09-13T17:17:20.721Z,45.95
2022-09-13T17:19:48.619Z,45.87
2022-09-13T17:22:16.805Z,46.07
2022-09-13T17:24:44.963Z,46.50
2022-09-13T17:27:16.252Z,46.93
2022-09-13T17:29:44.056Z,46.92
2022-09-13T17:32:11.849Z,47.30
2022-09-13T17:34:39.657Z,48.12
2022-09-13T17:37:12.576Z,48.41
2022-09-13T17:39:42.155Z,49.21
2022-09-13T17:42:09.931Z,48.81
2022-09-13T17:44:39.582Z,49.05
2022-09-13T17:47:07.701Z,48.34
2022-09-13T17:49:35.528Z,48.66
2022-09-13T17:52:04.049Z,48.75
2022-09-13T17:54:31.848Z,49.03
2022-09-13T17:57:00.226Z,49.90
2022-09-13T17:59:32.134Z,50.13
2022-09-13T18:02:01.582Z,50.30
2022-09-13T18:04:29.412Z,50.73
2022-09-13T18:06:57.260Z,51.56
2022-09-13T18:09:26.373Z,52.78
2022-09-13T18:11:54.212Z,52.47
2022-09-13T18:14:23.848Z,51.88
2022-09-13T18:16:55.783Z,52.16
2022-09-13T18:19:44.803Z,51.31
2022-09-13T18:22:13.433Z,51.32
2022-09-13T18:24:41.198Z,51.22
2022-09-13T18:27:12.361Z,51.69
2022-09-13T18:29:40.163Z,51.21
2022-09-13T18:32:08.263Z,51.54
2022-09-13T18:34:37.455Z,51.03
2022-09-13T18:37:09.849Z,52.30
2022-09-13T18:39:38.244Z,51.56
2022-09-13T18:42:08.534Z,50.98
2022-09-13T18:44:36.315Z,50.74
2022-09-13T18:47:05.223Z,51.85
2022-09-13T18:49:41.785Z,53.12
2022-09-13T18:52:11.000Z,52.50
2022-09-13T18:54:40.822Z,51.86
2022-09-13T18:57:08.616Z,51.78
2022-09-13T18:59:36.412Z,52.00
2022-09-13T19:02:04.230Z,54.04
2022-09-13T19:04:33.525Z,53.50
2022-09-13T19:07:07.090Z,53.44
2022-09-13T19:09:35.933Z,53.35
2022-09-13T19:12:05.507Z,53.62
2022-09-13T19:14:33.495Z,53.46
2022-09-13T19:17:02.952Z,53.30
2022-09-13T19:19:31.910Z,53.96
2022-09-13T19:21:59.730Z,54.17
2022-09-13T19:24:28.999Z,53.77
2022-09-13T19:26:56.752Z,53.66
2022-09-13T19:29:24.899Z,53.89
2022-09-13T19:31:55.711Z,57.22
2022-09-13T19:34:24.051Z,56.32
2022-09-13T19:36:57.553Z,56.56
2022-09-13T19:39:29.599Z,55.99
2022-09-13T19:41:59.724Z,55.41
2022-09-13T19:44:27.704Z,55.02
2022-09-13T19:47:26.914Z,55.98
2022-09-13T19:49:43.293Z,57.93
2022-09-13T19:52:11.096Z,57.73
2022-09-13T19:54:38.861Z,57.18
2022-09-13T19:57:09.816Z,58.21
2022-09-13T19:59:37.650Z,61.01
2022-09-13T20:02:05.991Z,60.61
2022-09-13T20:04:33.883Z,58.20
2022-09-13T20:07:01.650Z,57.10
2022-09-13T20:09:29.624Z,56.79
2022-09-13T20:12:00.411Z,57.39
2022-09-13T20:14:29.723Z,57.76
2022-09-13T20:16:57.982Z,58.88
2022-09-13T20:19:46.194Z,59.11
2022-09-13T20:22:13.748Z,61.20
2022-09-13T20:24:41.518Z,62.07
2022-09-13T20:27:10.078Z,61.25
2022-09-13T20:29:39.897Z,62.42
2022-09-13T20:32:07.947Z,62.87
2022-09-13T20:34:37.727Z,63.88
2022-09-13T20:37:05.635Z,65.25
2022-09-13T20:39:33.383Z,64.79
2022-09-13T20:42:01.139Z,61.70
2022-09-13T20:44:28.956Z,61.13
2022-09-13T20:46:58.410Z,61.30
2022-09-13T20:49:26.222Z,61.96
2022-09-13T20:51:54.011Z,62.79
2022-09-13T20:54:21.979Z,62.66
2022-09-13T20:56:49.727Z,60.34
2022-09-13T20:59:17.468Z,59.40
2022-09-13T21:01:45.495Z,60.24
2022-09-13T21:04:14.661Z,61.95
2022-09-13T21:07:03.612Z,62.25
2022-09-13T21:09:32.419Z,61.18
2022-09-13T21:12:01.199Z,61.28
2022-09-13T21:14:33.915Z,62.29
2022-09-13T21:17:01.860Z,61.18
2022-09-13T21:19:31.272Z,59.53
2022-09-13T21:21:59.128Z,59.27
2022-09-13T21:24:26.889Z,60.36
2022-09-13T21:26:54.632Z,61.17
2022-09-13T21:29:22.689Z,62.37
2022-09-13T21:31:50.410Z,63.70
2022-09-13T21:34:19.639Z,63.93
2022-09-13T21:36:49.196Z,64.47
2022-09-13T21:39:18.530Z,64.41
2022-09-13T21:41:47.565Z,64.88
2022-09-13T21:44:17.804Z,64.37
2022-09-13T21:46:46.650Z,64.03
2022-09-13T21:49:15.809Z,64.50
2022-09-13T21:51:46.511Z,63.40
2022-09-13T21:54:17.358Z,61.71
2022-09-13T21:56:50.313Z,61.57
2022-09-13T21:59:20.059Z,62.19
2022-09-13T22:01:50.419Z,62.19
2022-09-13T22:04:20.692Z,62.88
2022-09-13T22:06:51.617Z,61.93
2022-09-13T22:09:22.971Z,62.96
2022-09-13T22:11:50.888Z,64.51
2022-09-13T22:14:21.872Z,64.77
2022-09-13T22:16:52.470Z,64.93
2022-09-13T22:19:22.126Z,62.36
2022-09-13T22:21:53.573Z,61.72
2022-09-13T22:24:25.079Z,62.51
2022-09-13T22:26:54.236Z,63.71
2022-09-13T22:29:25.087Z,62.99
2022-09-13T22:31:53.228Z,62.83
2022-09-13T22:34:23.046Z,64.25
2022-09-13T22:36:50.803Z,64.42
2022-09-13T22:39:19.049Z,66.39
2022-09-13T22:41:48.162Z,67.33
2022-09-13T22:44:15.894Z,66.39
2022-09-13T22:46:45.155Z,64.21
2022-09-13T22:49:14.006Z,63.15
2022-09-13T22:51:42.243Z,62.65
2022-09-13T22:54:10.048Z,62.76
2022-09-13T22:56:40.735Z,62.79
2022-09-13T22:59:14.996Z,63.63
2022-09-13T23:01:43.882Z,63.88
2022-09-13T23:04:12.410Z,64.49
2022-09-13T23:06:40.862Z,65.12
2022-09-13T23:09:09.588Z,66.25
2022-09-13T23:11:39.449Z,66.25
2022-09-13T23:14:09.794Z,66.75
2022-09-13T23:16:40.773Z,67.14
2022-09-13T23:19:08.921Z,69.64
2022-09-13T23:21:38.686Z,70.27
2022-09-13T23:24:08.711Z,72.16
2022-09-13T23:26:36.591Z,70.55
2022-09-13T23:29:05.715Z,69.78
2022-09-13T23:31:38.459Z,70.65
2022-09-13T23:34:10.411Z,69.37
2022-09-13T23:36:39.913Z,70.33
2022-09-13T23:39:09.503Z,73.56
2022-09-13T23:41:37.397Z,73.51
2022-09-13T23:44:05.805Z,71.98
2022-09-13T23:46:33.637Z,70.40
2022-09-13T23:49:01.465Z,71.02
2022-09-13T23:51:30.988Z,70.23
2022-09-13T23:54:00.892Z,69.42
2022-09-13T23:56:30.797Z,71.00
2022-09-13T23:59:00.047Z,70.70
